createdAt,value
2022-08-05T00:02:40.392Z,21.34
2022-08-05T00:07:59.938Z,21.27
2022-08-05T00:13:04.162Z,21.22
2022-08-05T00:18:08.308Z,21.18
2022-08-05T00:23:12.877Z,21.11
2022-08-05T00:28:21.091Z,21.01
2022-08-05T00:34:53.187Z,20.90
2022-08-05T00:38:59.471Z,20.78
2022-08-05T00:44:03.456Z,20.72
2022-08-05T00:49:06.973Z,20.64
2022-08-05T00:54:13.568Z,20.56
2022-08-05T00:59:17.075Z,20.47
2022-08-05T01:04:26.757Z,20.41
2022-08-05T01:09:30.921Z,20.30
2022-08-05T01:14:44.633Z,20.24
2022-08-05T01:20:00.995Z,20.18
2022-08-05T01:26:18.133Z,20.13
2022-08-05T01:31:33.172Z,20.04
2022-08-05T01:37:18.005Z,19.99
2022-08-05T01:42:31.009Z,19.93
2022-08-05T01:47:39.254Z,19.89
2022-08-05T01:52:49.669Z,19.84
2022-08-05T01:58:09.315Z,19.79
2022-08-05T02:03:32.149Z,19.75
2022-08-05T02:08:44.774Z,19.70
2022-08-05T02:14:12.667Z,19.63
2022-08-05T02:19:28.273Z,19.55
2022-08-05T02:24:39.437Z,19.52
2022-08-05T02:29:58.955Z,19.47
2022-08-05T02:35:14.226Z,19.40
2022-08-05T02:40:19.398Z,19.31
2022-08-05T02:45:25.718Z,19.26
2022-08-05T02:50:30.351Z,19.15
2022-08-05T02:55:54.629Z,19.09
2022-08-05T03:01:02.704Z,19.06
2022-08-05T03:06:56.940Z,18.98
2022-08-05T03:11:55.278Z,18.98
2022-08-05T03:16:55.977Z,19.01
2022-08-05T03:21:59.386Z,19.07
2022-08-05T03:27:02.914Z,19.14
2022-08-05T03:32:11.411Z,19.18
2022-08-05T03:37:14.890Z,19.24
2022-08-05T03:42:18.272Z,19.30
2022-08-05T03:47:21.922Z,19.39
2022-08-05T03:52:37.445Z,19.44
2022-08-05T03:57:57.501Z,19.49
2022-08-05T04:03:04.427Z,19.59
2022-08-05T04:08:30.372Z,19.74
2022-08-05T04:13:50.120Z,19.86
2022-08-05T04:18:57.816Z,19.95
2022-08-05T04:24:06.249Z,20.03
2022-08-05T04:29:10.536Z,20.11
2022-08-05T04:34:18.609Z,20.23
2022-08-05T04:39:24.252Z,20.34
2022-08-05T04:44:30.876Z,20.42
2022-08-05T04:49:39.079Z,20.53
2022-08-05T04:54:58.844Z,20.68
2022-08-05T05:00:08.542Z,20.82
2022-08-05T05:05:26.332Z,20.95
2022-08-05T05:10:37.955Z,21.10
2022-08-05T05:15:57.291Z,21.25
2022-08-05T05:21:06.305Z,21.43
2022-08-05T05:26:10.462Z,21.61
2022-08-05T05:31:15.402Z,21.79
2022-08-05T05:36:22.059Z,21.99
2022-08-05T05:41:40.832Z,22.16
2022-08-05T05:46:45.269Z,22.35
2022-08-05T05:51:51.257Z,22.53
2022-08-05T05:56:56.887Z,22.70
2022-08-05T06:02:00.734Z,22.91
2022-08-05T06:07:04.464Z,23.11
2022-08-05T06:12:12.025Z,23.32
2022-08-05T06:17:22.526Z,23.51
2022-08-05T06:22:34.942Z,23.72
2022-08-05T06:28:10.685Z,23.96
2022-08-05T06:33:01.868Z,24.21
2022-08-05T06:38:10.084Z,24.44
2022-08-05T06:43:59.420Z,24.67
2022-08-05T06:48:56.050Z,24.86
2022-08-05T06:54:05.212Z,25.12
2022-08-05T06:59:15.052Z,25.34
2022-08-05T07:04:19.266Z,25.53
2022-08-05T07:09:24.984Z,25.72
2022-08-05T07:14:47.015Z,25.88
2022-08-05T07:25:23.057Z,26.29
2022-08-05T07:30:41.699Z,26.60
2022-08-05T07:36:04.136Z,26.83
2022-08-05T07:42:13.763Z,27.04
2022-08-05T07:46:41.085Z,27.27
2022-08-05T07:51:54.268Z,27.46
2022-08-05T07:57:13.658Z,27.60
2022-08-05T08:02:31.176Z,27.82
2022-08-05T08:07:59.730Z,27.94
2022-08-05T08:13:04.973Z,28.07
2022-08-05T08:18:14.281Z,28.25
2022-08-05T08:24:02.263Z,28.44
2022-08-05T08:28:55.236Z,28.59
2022-08-05T08:34:03.626Z,28.69
2022-08-05T08:39:15.351Z,28.87
2022-08-05T08:45:23.432Z,28.95
2022-08-05T08:50:05.963Z,29.09
2022-08-05T08:55:14.012Z,29.15
2022-08-05T09:00:23.590Z,29.30
2022-08-05T09:05:38.308Z,29.40
2022-08-05T09:10:52.136Z,29.56
2022-08-05T09:15:56.432Z,29.67
2022-08-05T09:20:59.854Z,29.75
2022-08-05T09:26:15.864Z,29.86
2022-08-05T09:32:41.209Z,29.93
2022-08-05T09:36:55.650Z,29.98
2022-08-05T09:42:05.021Z,30.01
2022-08-05T09:47:24.002Z,30.17
2022-08-05T09:52:28.356Z,30.30
2022-08-05T09:57:45.582Z,30.47
2022-08-05T10:02:58.038Z,30.62
2022-08-05T10:08:37.009Z,30.77
2022-08-05T10:13:47.813Z,30.83
2022-08-05T10:18:53.054Z,30.87
2022-08-05T10:24:00.467Z,30.88
2022-08-05T10:29:04.597Z,30.89
2022-08-05T10:34:10.452Z,31.05
2022-08-05T10:39:24.586Z,31.12
2022-08-05T10:44:32.740Z,31.26
2022-08-05T10:49:49.168Z,31.40
2022-08-05T10:55:10.272Z,31.52
2022-08-05T11:00:23.327Z,31.49
2022-08-05T11:05:29.251Z,31.59
2022-08-05T11:10:37.781Z,31.54
2022-08-05T11:16:34.048Z,31.52
2022-08-05T11:21:49.530Z,31.55
2022-08-05T11:27:50.914Z,31.61
2022-08-05T11:33:46.026Z,31.70
2022-08-05T11:38:54.910Z,31.66
2022-08-05T11:44:12.832Z,31.61
2022-08-05T11:49:36.616Z,31.74
2022-08-05T11:54:43.464Z,31.89
2022-08-05T11:59:52.264Z,31.88
2022-08-05T12:04:59.618Z,31.91
2022-08-05T12:10:09.229Z,31.85
2022-08-05T12:15:35.764Z,31.90
2022-08-05T12:20:42.156Z,31.97
2022-08-05T12:25:56.994Z,32.04
2022-08-05T12:31:02.069Z,32.09
2022-08-05T12:36:09.354Z,32.18
2022-08-05T12:41:16.437Z,32.24
2022-08-05T12:46:29.088Z,32.26
2022-08-05T12:52:14.291Z,32.32
2022-08-05T12:58:52.569Z,32.31
2022-08-05T13:03:02.460Z,32.34
2022-08-05T13:08:08.548Z,32.36
2022-08-05T13:13:12.310Z,32.33
2022-08-05T13:18:39.182Z,32.45
2022-08-05T13:23:50.674Z,32.31
2022-08-05T13:28:55.628Z,32.37
2022-08-05T13:34:21.145Z,32.31
2022-08-05T13:40:13.638Z,32.42
2022-08-05T13:44:47.094Z,32.50
2022-08-05T13:49:52.233Z,32.46
2022-08-05T13:54:57.299Z,32.30
2022-08-05T14:00:05.766Z,32.24
2022-08-05T14:05:15.313Z,32.07
2022-08-05T14:10:33.803Z,31.87
2022-08-05T14:16:08.395Z,31.71
2022-08-05T14:21:00.831Z,31.75
2022-08-05T14:26:36.207Z,31.91
2022-08-05T14:32:02.910Z,31.99
2022-08-05T14:37:13.322Z,32.10
2022-08-05T14:42:20.952Z,32.27
2022-08-05T14:48:03.446Z,32.39
2022-08-05T14:52:56.919Z,32.33
2022-08-05T14:58:01.953Z,32.27
2022-08-05T15:03:15.014Z,32.18
2022-08-05T15:08:58.444Z,32.03
2022-08-05T15:13:46.271Z,32.10
2022-08-05T15:18:53.836Z,32.41
2022-08-05T15:23:57.290Z,32.49
2022-08-05T15:29:02.474Z,32.49
2022-08-05T15:34:31.890Z,32.42
2022-08-05T15:40:58.698Z,32.66
2022-08-05T15:44:55.271Z,33.31
2022-08-05T15:49:59.523Z,33.79
2022-08-05T15:55:04.988Z,34.29
2022-08-05T16:00:12.509Z,34.68
2022-08-05T16:05:20.303Z,34.71
2022-08-05T16:10:26.745Z,34.86
2022-08-05T16:15:32.497Z,34.68
2022-08-05T16:20:37.670Z,34.85
2022-08-05T16:25:41.488Z,34.49
2022-08-05T16:30:45.145Z,33.87
2022-08-05T16:35:52.786Z,34.53
2022-08-05T16:41:01.434Z,35.18
2022-08-05T16:46:23.899Z,35.48
2022-08-05T16:51:30.827Z,35.37
2022-08-05T16:56:45.809Z,35.33
2022-08-05T17:01:56.358Z,34.98
2022-08-05T17:07:11.221Z,34.49
2022-08-05T17:12:15.192Z,33.25
2022-08-05T17:17:19.815Z,32.25
2022-08-05T17:22:26.139Z,31.77
2022-08-05T17:27:33.664Z,32.37
2022-08-05T17:32:37.900Z,33.11
2022-08-05T17:37:48.258Z,33.28
2022-08-05T17:42:53.581Z,33.03
2022-08-05T17:47:57.431Z,32.91
2022-08-05T17:53:04.613Z,32.42
2022-08-05T17:58:13.036Z,31.85
2022-08-05T18:03:48.510Z,30.93
2022-08-05T18:08:52.345Z,30.25
2022-08-05T18:13:56.266Z,29.74
2022-08-05T18:18:59.663Z,29.41
2022-08-05T18:24:04.314Z,29.07
2022-08-05T18:29:10.200Z,28.78
2022-08-05T18:34:14.001Z,28.50
2022-08-05T18:39:42.239Z,28.25
2022-08-05T18:44:51.523Z,27.97
2022-08-05T18:50:17.610Z,27.72
2022-08-05T18:55:22.398Z,27.50
2022-08-05T19:00:29.125Z,27.23
2022-08-05T19:06:12.178Z,27.01
2022-08-05T19:11:02.769Z,26.82
2022-08-05T19:16:25.173Z,26.64
2022-08-05T19:21:34.605Z,26.53
2022-08-05T19:26:43.791Z,26.47
2022-08-05T19:31:58.750Z,26.41
2022-08-05T19:37:02.811Z,26.36
2022-08-05T19:42:09.135Z,26.29
2022-08-05T19:47:15.100Z,26.17
2022-08-05T19:52:31.227Z,26.05
2022-08-05T19:57:49.169Z,25.97
2022-08-05T20:02:59.681Z,25.86
2022-08-05T20:08:03.401Z,25.74
2022-08-05T20:13:08.145Z,25.67
2022-08-05T20:18:33.914Z,25.61
2022-08-05T20:23:51.626Z,25.52
2022-08-05T20:29:00.765Z,25.45
2022-08-05T20:34:04.382Z,25.39
2022-08-05T20:39:12.865Z,25.31
2022-08-05T20:44:30.308Z,25.14
2022-08-05T20:49:39.516Z,25.11
2022-08-05T20:55:55.595Z,25.06
2022-08-05T21:00:40.444Z,25.07
2022-08-05T21:05:47.556Z,25.08
2022-08-05T21:10:58.431Z,25.05
2022-08-05T21:16:02.413Z,25.03
2022-08-05T21:21:07.181Z,25.03
2022-08-05T21:26:15.105Z,25.10
2022-08-05T21:31:19.656Z,25.19
2022-08-05T21:36:30.057Z,25.26
2022-08-05T21:41:36.404Z,25.22
2022-08-05T21:46:40.383Z,24.95
2022-08-05T21:52:22.856Z,24.61
2022-08-05T21:57:30.247Z,24.58
2022-08-05T22:02:33.680Z,24.52
2022-08-05T22:07:40.052Z,24.35
2022-08-05T22:13:08.925Z,24.08
2022-08-05T22:18:25.806Z,23.90
2022-08-05T22:24:02.677Z,23.83
2022-08-05T22:29:11.797Z,23.74
2022-08-05T22:34:25.409Z,23.63
2022-08-05T22:39:34.797Z,23.57
2022-08-05T22:44:38.388Z,23.49
2022-08-05T22:50:18.205Z,23.41
2022-08-05T22:55:18.960Z,23.31
2022-08-05T23:00:24.286Z,23.28
2022-08-05T23:05:30.021Z,23.22
2022-08-05T23:10:39.618Z,23.23
2022-08-05T23:15:43.196Z,23.23
2022-08-05T23:20:53.737Z,23.20
2022-08-05T23:25:57.086Z,23.21
2022-08-05T23:31:15.971Z,23.23
2022-08-05T23:36:21.188Z,23.18
2022-08-05T23:41:34.251Z,23.13
2022-08-05T23:46:40.852Z,22.95
2022-08-05T23:52:05.552Z,22.64
2022-08-05T23:57:09.267Z,22.52
